Weather at Garner Field

Public forecast

Using degrees Fahrenheit for public forecast. Weather courtesy of forecast.io.

Current aviation weather report (METAR) for Garner Field

Retrieved 2021/02/25 00:35 UTC (46 minutes ago):

KUVA 250035Z AUTO 12005KT 10SM CLR 23/15 A2998 RMK AO2 T02260153

Closest aviation forecast (TAF) to Garner Field

Closest forecast is Cotulla-La Salle County Airport, 53.0 nm (98.2 km) SSE. Retrieved 2021-02-25 00:21 UTC (60 minutes ago):

TAF KCOT 242320Z 2500/2524 08004KT P6SM FEW200 FM250800 08006KT 6SM BR OVC007 FM251800 04008KT P6SM OVC010